createdAt,value
2022-11-10T00:01:50.678Z,12.25
2022-11-10T00:04:11.231Z,13.40
2022-11-10T00:06:31.722Z,14.23
2022-11-10T00:08:52.511Z,13.63
2022-11-10T00:11:13.531Z,13.07
2022-11-10T00:13:56.535Z,13.40
2022-11-10T00:16:36.041Z,12.90
2022-11-10T00:18:56.979Z,12.73
2022-11-10T00:21:18.582Z,13.13
2022-11-10T00:23:39.740Z,11.98
2022-11-10T00:26:03.172Z,12.07
2022-11-10T00:28:23.847Z,11.73
2022-11-10T00:30:46.954Z,12.82
2022-11-10T00:33:08.112Z,14.65
2022-11-10T00:35:29.014Z,12.23
2022-11-10T00:37:50.841Z,13.45
2022-11-10T00:40:12.046Z,13.13
2022-11-10T00:42:32.955Z,13.55
2022-11-10T00:44:54.084Z,14.27
2022-11-10T00:47:15.056Z,12.60
2022-11-10T00:49:35.636Z,13.88
2022-11-10T00:52:47.567Z,14.35
2022-11-10T00:55:09.257Z,14.70
2022-11-10T00:57:29.802Z,14.68
2022-11-10T00:59:50.061Z,14.48
2022-11-10T01:02:10.823Z,13.85
2022-11-10T01:04:31.780Z,13.70
2022-11-10T01:06:53.063Z,13.45
2022-11-10T01:09:13.399Z,13.70
2022-11-10T01:11:33.677Z,12.15
2022-11-10T01:13:56.525Z,12.32
2022-11-10T01:16:20.863Z,13.00
2022-11-10T01:18:41.738Z,12.68
2022-11-10T01:21:02.492Z,13.82
2022-11-10T01:23:23.624Z,12.65
2022-11-10T01:25:44.773Z,13.38
2022-11-10T01:32:07.273Z,12.88
2022-11-10T01:34:28.871Z,12.05
2022-11-10T01:36:49.609Z,12.32
2022-11-10T01:39:11.008Z,12.95
2022-11-10T01:41:31.665Z,12.90
2022-11-10T01:43:52.140Z,13.68
2022-11-10T01:46:14.234Z,12.20
2022-11-10T01:48:57.633Z,12.13
2022-11-10T01:51:32.685Z,11.52
2022-11-10T01:53:58.395Z,12.13
2022-11-10T01:56:19.524Z,11.88
2022-11-10T01:58:46.157Z,12.68
2022-11-10T02:01:10.527Z,13.15
2022-11-10T02:03:43.213Z,12.32
2022-11-10T02:06:07.069Z,12.60
2022-11-10T02:08:28.206Z,12.13
2022-11-10T02:10:52.091Z,11.73
2022-11-10T02:13:13.528Z,10.95
2022-11-10T02:15:34.368Z,12.15
2022-11-10T02:17:55.165Z,12.27
2022-11-10T02:20:19.505Z,14.27
2022-11-10T02:22:40.690Z,12.30
2022-11-10T02:25:01.163Z,12.10
2022-11-10T02:27:21.773Z,12.35
2022-11-10T02:29:42.501Z,12.38
2022-11-10T02:32:05.482Z,13.93
2022-11-10T02:34:26.120Z,13.18
2022-11-10T02:36:49.215Z,12.93
2022-11-10T02:39:10.211Z,13.15
2022-11-10T02:41:30.923Z,14.73
2022-11-10T02:43:52.912Z,13.85
2022-11-10T02:46:14.181Z,13.45
2022-11-10T02:48:34.894Z,15.05
2022-11-10T02:50:56.126Z,13.10
2022-11-10T02:53:16.904Z,14.50
2022-11-10T02:55:37.863Z,14.27
2022-11-10T02:57:58.578Z,12.57
2022-11-10T03:00:21.740Z,13.43
2022-11-10T03:02:42.469Z,12.57
2022-11-10T03:05:02.911Z,11.80
2022-11-10T03:07:26.246Z,13.50
2022-11-10T03:09:46.888Z,12.48
2022-11-10T03:12:07.742Z,13.38
2022-11-10T03:14:28.528Z,12.77
2022-11-10T03:16:53.043Z,13.02
2022-11-10T03:19:13.726Z,12.10
2022-11-10T03:21:34.639Z,12.98
2022-11-10T03:23:55.558Z,12.75
2022-11-10T03:26:18.278Z,12.98
2022-11-10T03:28:38.999Z,13.38
2022-11-10T03:31:03.164Z,13.13
2022-11-10T03:33:26.587Z,14.07
2022-11-10T03:35:47.138Z,12.70
2022-11-10T03:38:08.109Z,12.27
2022-11-10T03:40:28.924Z,12.93
2022-11-10T03:42:49.948Z,13.25
2022-11-10T03:45:12.753Z,12.70
2022-11-10T03:47:35.973Z,12.77
2022-11-10T03:49:56.321Z,12.70
2022-11-10T03:52:18.076Z,13.43
2022-11-10T03:54:38.550Z,12.93
2022-11-10T03:56:59.509Z,15.80
2022-11-10T04:00:10.047Z,15.57
2022-11-10T04:02:30.977Z,15.85
2022-11-10T04:05:10.432Z,16.70
2022-11-10T04:07:49.917Z,15.45
2022-11-10T04:10:10.927Z,15.32
2022-11-10T04:12:51.629Z,15.75
2022-11-10T04:15:31.413Z,15.93
2022-11-10T04:17:52.341Z,14.00
2022-11-10T04:20:13.118Z,14.00
2022-11-10T04:22:52.537Z,13.68
2022-11-10T04:25:13.440Z,14.05
2022-11-10T04:27:33.949Z,14.07
2022-11-10T04:29:54.933Z,14.35
2022-11-10T04:32:15.790Z,14.32
2022-11-10T04:34:36.222Z,13.88
2022-11-10T04:36:57.093Z,16.52
2022-11-10T04:39:18.293Z,16.42
2022-11-10T04:41:38.834Z,15.15
2022-11-10T04:44:00.637Z,15.77
2022-11-10T04:46:31.573Z,15.38
2022-11-10T04:48:53.173Z,15.57
2022-11-10T04:51:14.791Z,14.15
2022-11-10T04:53:36.189Z,17.63
2022-11-10T04:55:59.710Z,15.60
2022-11-10T04:58:20.691Z,15.40
2022-11-10T05:00:42.263Z,14.52
2022-11-10T05:03:06.725Z,13.45
2022-11-10T05:05:27.241Z,14.63
2022-11-10T05:07:48.758Z,14.32
2022-11-10T05:10:12.188Z,15.13
2022-11-10T05:12:32.808Z,14.55
2022-11-10T05:14:53.257Z,19.90
2022-11-10T05:17:17.071Z,21.98
2022-11-10T05:19:37.594Z,22.02
2022-11-10T05:21:58.723Z,18.88
2022-11-10T05:24:19.664Z,19.08
2022-11-10T05:26:39.991Z,18.10
2022-11-10T05:29:00.871Z,17.58
2022-11-10T05:31:21.240Z,19.00
2022-11-10T05:33:42.076Z,17.83
2022-11-10T05:36:02.903Z,17.55
2022-11-10T05:38:23.373Z,16.08
2022-11-10T05:40:44.340Z,14.75
2022-11-10T05:43:04.793Z,13.38
2022-11-10T05:45:27.190Z,14.68
2022-11-10T05:47:48.192Z,15.15
2022-11-10T05:50:11.221Z,14.65
2022-11-10T05:52:32.155Z,15.18
2022-11-10T05:54:55.619Z,16.77
2022-11-10T05:57:16.158Z,15.73
2022-11-10T05:59:36.355Z,15.70
2022-11-10T06:01:56.455Z,15.60
2022-11-10T06:04:16.948Z,15.80
2022-11-10T06:06:37.438Z,17.00
2022-11-10T06:08:59.383Z,15.60
2022-11-10T06:11:20.763Z,19.23
2022-11-10T06:13:41.169Z,19.75
2022-11-10T06:16:02.160Z,21.13
2022-11-10T06:18:22.730Z,18.55
2022-11-10T06:20:43.402Z,17.67
2022-11-10T06:23:10.318Z,19.23
2022-11-10T06:25:33.195Z,17.50
2022-11-10T06:27:53.990Z,18.83
2022-11-10T06:30:15.555Z,18.70
2022-11-10T06:32:35.716Z,18.90
2022-11-10T06:35:00.309Z,18.08
2022-11-10T06:37:21.292Z,18.90
2022-11-10T06:39:41.568Z,17.95
2022-11-10T06:42:01.826Z,19.30
2022-11-10T06:44:24.319Z,21.02
2022-11-10T06:46:48.140Z,22.02
2022-11-10T06:49:08.959Z,21.98
2022-11-10T06:51:29.558Z,22.85
2022-11-10T06:53:51.294Z,24.25
2022-11-10T06:56:11.722Z,24.67
2022-11-10T06:58:32.465Z,29.63
2022-11-10T07:00:53.175Z,28.17
2022-11-10T07:03:15.047Z,28.38
2022-11-10T07:05:36.956Z,27.13
2022-11-10T07:08:04.138Z,28.48
2022-11-10T07:10:24.373Z,27.33
2022-11-10T07:12:45.112Z,31.20
2022-11-10T07:15:06.479Z,35.47
2022-11-10T07:17:27.137Z,33.28
2022-11-10T07:19:47.199Z,32.35
2022-11-10T07:22:11.298Z,34.42
2022-11-10T07:24:32.867Z,36.45
2022-11-10T07:26:53.613Z,34.88
2022-11-10T07:29:14.239Z,30.35
2022-11-10T07:31:34.686Z,28.05
2022-11-10T07:33:55.059Z,25.30
2022-11-10T07:36:15.275Z,25.75
2022-11-10T07:38:35.872Z,25.05
2022-11-10T07:40:56.956Z,24.77
2022-11-10T07:43:17.507Z,28.45
2022-11-10T07:45:37.679Z,29.80
2022-11-10T07:48:00.837Z,26.98
2022-11-10T07:50:21.248Z,28.10
2022-11-10T07:52:42.355Z,28.27
2022-11-10T07:55:03.582Z,31.48
2022-11-10T07:57:24.700Z,30.35
2022-11-10T07:59:45.183Z,28.08
2022-11-10T08:02:06.203Z,31.98
2022-11-10T08:04:30.062Z,31.00
2022-11-10T08:06:50.754Z,32.20
2022-11-10T08:09:11.173Z,39.25
2022-11-10T08:11:32.069Z,39.97
2022-11-10T08:13:52.651Z,35.90
2022-11-10T08:16:13.413Z,36.90
2022-11-10T08:18:35.747Z,39.15
2022-11-10T08:21:25.067Z,37.75
2022-11-10T08:23:45.614Z,36.35
2022-11-10T08:26:06.182Z,35.25
2022-11-10T08:28:27.957Z,35.97
2022-11-10T08:30:49.567Z,31.80
2022-11-10T08:33:12.920Z,31.25
2022-11-10T08:35:36.730Z,28.48
2022-11-10T08:38:03.999Z,30.05
2022-11-10T08:40:30.015Z,32.63
2022-11-10T08:43:01.970Z,31.17
2022-11-10T08:45:22.714Z,29.35
2022-11-10T08:47:44.938Z,30.38
2022-11-10T08:50:07.401Z,29.50
2022-11-10T08:52:28.154Z,25.52
2022-11-10T08:54:50.297Z,25.58
2022-11-10T08:57:11.085Z,20.52
2022-11-10T08:59:32.286Z,23.15
2022-11-10T09:01:53.000Z,22.55
2022-11-10T09:04:15.999Z,20.50
2022-11-10T09:06:37.428Z,22.70
2022-11-10T09:08:57.975Z,22.15
2022-11-10T09:11:18.792Z,20.20
2022-11-10T09:13:39.519Z,20.85
2022-11-10T09:16:04.834Z,20.20
2022-11-10T09:18:25.520Z,19.80
2022-11-10T09:20:46.703Z,19.60
2022-11-10T09:23:12.675Z,22.25
2022-11-10T09:25:33.842Z,24.25
2022-11-10T09:27:56.802Z,26.80
2022-11-10T09:30:18.093Z,25.80
2022-11-10T09:32:38.680Z,23.15
2022-11-10T09:34:59.793Z,23.20
2022-11-10T09:37:20.192Z,23.30
2022-11-10T09:39:41.248Z,23.23
2022-11-10T09:42:02.595Z,22.13
2022-11-10T09:44:34.312Z,22.17
2022-11-10T09:46:58.987Z,24.35
2022-11-10T09:49:31.852Z,22.90
2022-11-10T09:51:54.557Z,21.55
2022-11-10T09:54:33.788Z,21.95
2022-11-10T09:57:00.136Z,19.40
2022-11-10T09:59:27.142Z,17.10
2022-11-10T10:02:19.729Z,17.63
2022-11-10T10:04:54.333Z,18.35
2022-11-10T10:07:37.078Z,17.75
2022-11-10T10:10:28.117Z,17.40
2022-11-10T10:13:25.979Z,18.88
2022-11-10T10:16:08.029Z,18.25
2022-11-10T10:18:47.120Z,19.63
2022-11-10T10:21:39.200Z,20.77
2022-11-10T10:24:13.832Z,18.90
2022-11-10T10:26:45.249Z,19.50
2022-11-10T10:29:22.079Z,18.85
2022-11-10T10:31:49.115Z,18.35
2022-11-10T10:34:15.918Z,18.73
2022-11-10T10:36:36.548Z,18.83
2022-11-10T10:39:02.977Z,18.88
2022-11-10T10:41:32.173Z,20.98
2022-11-10T10:43:56.357Z,20.48
2022-11-10T10:46:20.403Z,21.02
2022-11-10T10:48:41.235Z,20.10
2022-11-10T10:51:02.072Z,21.13
2022-11-10T10:53:25.946Z,21.13
2022-11-10T10:55:57.825Z,23.23
2022-11-10T10:58:22.565Z,23.75
2022-11-10T11:00:49.652Z,23.48
2022-11-10T11:03:24.389Z,24.55
2022-11-10T11:06:18.981Z,24.83
2022-11-10T11:08:39.471Z,21.83
2022-11-10T11:11:11.045Z,20.92
2022-11-10T11:13:32.115Z,22.80
2022-11-10T11:16:01.920Z,22.63
2022-11-10T11:18:23.922Z,21.63
2022-11-10T11:21:33.799Z,22.15
2022-11-10T11:24:09.678Z,22.33
2022-11-10T11:26:39.618Z,23.33
2022-11-10T11:29:26.656Z,22.70
2022-11-10T11:31:53.702Z,24.42
2022-11-10T11:34:37.447Z,23.30
2022-11-10T11:37:09.801Z,23.27
2022-11-10T11:40:06.134Z,22.27
2022-11-10T11:42:56.281Z,47.70
2022-11-10T11:45:28.987Z,120.05
2022-11-10T11:48:17.765Z,127.47
2022-11-10T11:51:27.690Z,123.05
2022-11-10T11:54:16.367Z,185.20
2022-11-10T11:56:43.770Z,262.77
2022-11-10T11:59:27.331Z,714.85
2022-11-10T12:02:18.615Z,634.90
2022-11-10T12:05:11.536Z,482.77
2022-11-10T12:07:55.239Z,441.67
2022-11-10T12:10:31.076Z,355.17
2022-11-10T12:13:13.904Z,271.02
2022-11-10T12:16:00.889Z,192.45
2022-11-10T12:18:34.075Z,142.65
2022-11-10T12:20:57.438Z,123.32
2022-11-10T12:23:24.320Z,119.13
2022-11-10T12:25:48.101Z,89.40
2022-11-10T12:28:13.884Z,73.53
2022-11-10T12:30:35.844Z,67.05
2022-11-10T12:33:16.809Z,87.00
2022-11-10T12:35:44.601Z,54.53
2022-11-10T12:38:16.363Z,41.08
2022-11-10T12:40:42.319Z,31.75
2022-11-10T12:43:07.302Z,38.80
2022-11-10T12:45:35.927Z,45.72
2022-11-10T12:47:56.729Z,56.30
2022-11-10T12:50:39.961Z,92.60
2022-11-10T12:53:27.913Z,131.55
2022-11-10T12:56:01.826Z,152.13
2022-11-10T12:58:22.877Z,266.75
2022-11-10T13:00:58.154Z,302.48
2022-11-10T13:03:28.686Z,287.73
2022-11-10T13:05:56.006Z,246.45
2022-11-10T13:08:28.186Z,206.80
2022-11-10T13:11:03.059Z,220.15
2022-11-10T13:13:24.845Z,215.45
2022-11-10T13:15:48.802Z,193.45
2022-11-10T13:18:10.441Z,196.57
2022-11-10T13:20:39.983Z,197.82
2022-11-10T13:23:00.583Z,190.85
2022-11-10T13:25:36.805Z,170.43
2022-11-10T13:29:13.010Z,145.85
2022-11-10T13:31:34.598Z,129.73
2022-11-10T13:34:18.224Z,121.63
2022-11-10T13:36:50.011Z,123.18
2022-11-10T13:39:19.602Z,120.60
2022-11-10T13:41:47.274Z,113.20
2022-11-10T13:44:32.790Z,118.05
2022-11-10T13:46:53.971Z,127.68
2022-11-10T13:49:27.244Z,128.85
2022-11-10T13:52:09.659Z,145.50
2022-11-10T13:54:36.544Z,177.90
2022-11-10T13:57:05.267Z,214.90
2022-11-10T13:59:32.747Z,160.52
2022-11-10T14:01:53.490Z,141.40
2022-11-10T14:04:35.914Z,127.30
2022-11-10T14:06:58.039Z,116.53
2022-11-10T14:09:32.290Z,117.22
2022-11-10T14:12:30.864Z,124.05
2022-11-10T14:15:02.429Z,123.80
2022-11-10T14:17:29.045Z,121.78
2022-11-10T14:19:50.162Z,123.88
2022-11-10T14:22:35.462Z,106.60
2022-11-10T14:25:03.184Z,97.95
2022-11-10T14:27:28.354Z,77.47
2022-11-10T14:29:49.423Z,64.93
2022-11-10T14:32:20.495Z,59.70
2022-11-10T14:34:46.840Z,51.30
2022-11-10T14:37:07.500Z,46.13
2022-11-10T14:39:33.488Z,47.20
2022-11-10T14:41:54.583Z,52.67
2022-11-10T14:44:25.125Z,57.63
2022-11-10T14:46:45.762Z,63.17
2022-11-10T14:49:11.013Z,59.67
2022-11-10T14:51:35.143Z,57.72
2022-11-10T14:53:57.896Z,49.78
2022-11-10T14:56:27.114Z,48.92
2022-11-10T14:59:14.047Z,47.97
2022-11-10T15:01:39.017Z,44.83
2022-11-10T15:04:01.899Z,40.70
2022-11-10T15:06:22.661Z,39.45
2022-11-10T15:08:43.408Z,38.83
2022-11-10T15:11:04.157Z,38.40
2022-11-10T15:13:28.368Z,44.03
2022-11-10T15:15:49.107Z,46.03
2022-11-10T15:18:26.031Z,42.72
2022-11-10T15:21:01.655Z,43.30
2022-11-10T15:23:30.602Z,41.22
2022-11-10T15:25:54.204Z,40.45
2022-11-10T15:28:29.693Z,37.85
2022-11-10T15:30:53.492Z,38.60
2022-11-10T15:33:17.061Z,36.20
2022-11-10T15:35:37.633Z,33.45
2022-11-10T15:38:21.417Z,34.03
2022-11-10T15:40:52.131Z,34.42
2022-11-10T15:43:22.439Z,32.15
2022-11-10T15:45:51.084Z,31.90
2022-11-10T15:49:18.808Z,36.40
2022-11-10T15:51:39.877Z,40.83
2022-11-10T15:54:00.309Z,46.83
2022-11-10T15:56:23.884Z,49.42
2022-11-10T15:58:57.861Z,46.75
2022-11-10T16:01:21.597Z,57.90
2022-11-10T16:03:42.741Z,55.53
2022-11-10T16:06:03.331Z,50.30
2022-11-10T16:08:24.478Z,42.70
2022-11-10T16:10:48.214Z,44.45
2022-11-10T16:13:12.139Z,63.95
2022-11-10T16:15:33.410Z,55.55
2022-11-10T16:17:54.142Z,51.17
2022-11-10T16:20:15.774Z,49.88
2022-11-10T16:26:35.889Z,44.10
2022-11-10T16:28:56.982Z,44.65
2022-11-10T16:31:19.289Z,43.95
2022-11-10T16:33:40.205Z,49.25
2022-11-10T16:36:00.555Z,63.78
2022-11-10T16:38:29.668Z,73.85
2022-11-10T16:41:01.173Z,70.60
2022-11-10T16:43:26.071Z,75.50
2022-11-10T16:45:48.864Z,82.88
2022-11-10T16:48:09.712Z,76.75
2022-11-10T16:50:34.552Z,70.07
2022-11-10T16:52:56.606Z,84.03
2022-11-10T16:55:16.956Z,105.32
2022-11-10T16:57:40.053Z,108.45
2022-11-10T17:00:00.690Z,91.93
2022-11-10T17:02:31.447Z,78.55
2022-11-10T17:04:52.011Z,63.63
2022-11-10T17:07:15.003Z,57.55
2022-11-10T17:09:35.626Z,59.80
2022-11-10T17:15:52.011Z,64.97
2022-11-10T17:18:16.111Z,61.83
2022-11-10T17:20:39.972Z,61.70
2022-11-10T17:23:02.755Z,65.25
2022-11-10T17:25:29.116Z,51.38
2022-11-10T17:27:49.702Z,49.35
2022-11-10T17:30:10.867Z,44.92
2022-11-10T17:32:58.079Z,44.75
2022-11-10T17:35:12.008Z,62.67
2022-11-10T17:37:32.591Z,122.68
2022-11-10T17:39:55.269Z,96.60
2022-11-10T17:42:16.577Z,73.95
2022-11-10T17:44:39.427Z,61.53
2022-11-10T17:47:00.317Z,62.13
2022-11-10T17:49:21.102Z,69.95
2022-11-10T17:51:41.643Z,77.88
2022-11-10T17:54:04.622Z,77.13
2022-11-10T17:56:25.543Z,68.97
2022-11-10T17:58:46.655Z,62.72
2022-11-10T18:01:19.103Z,57.28
2022-11-10T18:03:40.232Z,55.35
2022-11-10T18:06:00.747Z,55.80
2022-11-10T18:08:21.268Z,52.35
2022-11-10T18:10:52.442Z,55.28
2022-11-10T18:13:13.003Z,53.42
2022-11-10T18:15:34.815Z,53.83
2022-11-10T18:18:01.025Z,50.70
2022-11-10T18:20:21.784Z,51.75
2022-11-10T18:22:43.611Z,52.22
2022-11-10T18:25:11.299Z,50.28
2022-11-10T18:27:31.897Z,50.78
2022-11-10T18:29:55.790Z,51.33
2022-11-10T18:32:16.801Z,54.38
2022-11-10T18:34:37.609Z,53.08
2022-11-10T18:36:58.800Z,55.90
2022-11-10T18:39:19.481Z,56.67
2022-11-10T18:41:49.084Z,55.05
2022-11-10T18:44:10.578Z,54.08
2022-11-10T18:46:31.577Z,47.30
2022-11-10T18:48:51.807Z,53.63
2022-11-10T18:51:12.822Z,51.47
2022-11-10T18:53:38.117Z,54.00
2022-11-10T18:55:59.455Z,51.63
2022-11-10T18:58:20.942Z,53.30
2022-11-10T19:00:43.216Z,51.03
2022-11-10T19:03:04.248Z,51.65
2022-11-10T19:05:25.427Z,57.22
2022-11-10T19:07:46.140Z,55.08
2022-11-10T19:10:08.315Z,52.60
2022-11-10T19:12:34.234Z,53.42
2022-11-10T19:14:54.865Z,47.88
2022-11-10T19:17:16.262Z,50.20
2022-11-10T19:19:37.378Z,51.85
2022-11-10T19:21:57.618Z,53.08
2022-11-10T19:24:27.803Z,53.13
2022-11-10T19:26:52.735Z,54.78
2022-11-10T19:29:15.353Z,55.75
2022-11-10T19:31:38.181Z,55.38
2022-11-10T19:33:59.970Z,57.50
2022-11-10T19:36:23.184Z,56.08
2022-11-10T19:38:45.536Z,54.38
2022-11-10T19:41:12.277Z,51.10
2022-11-10T19:43:33.860Z,49.65
2022-11-10T19:45:54.445Z,45.75
2022-11-10T19:48:15.426Z,42.45
2022-11-10T19:50:36.045Z,39.05
2022-11-10T19:52:59.374Z,37.30
2022-11-10T19:55:32.348Z,32.97
2022-11-10T19:57:53.179Z,32.38
2022-11-10T20:00:16.082Z,33.00
2022-11-10T20:02:42.734Z,35.10
2022-11-10T20:05:27.117Z,31.38
2022-11-10T20:08:09.844Z,32.28
2022-11-10T20:10:30.799Z,33.70
2022-11-10T20:12:51.688Z,34.92
2022-11-10T20:15:11.932Z,33.33
2022-11-10T20:17:32.517Z,33.15
2022-11-10T20:19:52.898Z,32.95
2022-11-10T20:22:13.815Z,32.00
2022-11-10T20:24:36.272Z,32.42
2022-11-10T20:26:59.332Z,32.20
2022-11-10T20:29:19.861Z,32.78
2022-11-10T20:31:40.343Z,32.47
2022-11-10T20:34:01.079Z,34.85
2022-11-10T20:36:29.624Z,33.30
2022-11-10T20:38:51.095Z,32.95
2022-11-10T20:41:17.650Z,34.55
2022-11-10T20:43:38.834Z,33.92
2022-11-10T20:46:02.029Z,37.80
2022-11-10T20:48:22.829Z,33.38
2022-11-10T20:50:42.958Z,35.80
2022-11-10T20:53:06.083Z,33.60
2022-11-10T20:55:52.113Z,33.92
2022-11-10T20:58:07.128Z,37.08
2022-11-10T21:00:27.720Z,37.33
2022-11-10T21:02:48.307Z,37.17
2022-11-10T21:05:09.335Z,38.63
2022-11-10T21:07:29.899Z,38.08
2022-11-10T21:09:50.763Z,39.15
2022-11-10T21:12:32.700Z,56.97
2022-11-10T21:14:53.299Z,45.67
2022-11-10T21:17:14.085Z,42.28
2022-11-10T21:19:35.563Z,43.65
2022-11-10T21:21:56.233Z,42.13
2022-11-10T21:24:19.846Z,39.10
2022-11-10T21:26:41.600Z,39.58
2022-11-10T21:29:05.105Z,41.85
2022-11-10T21:31:26.387Z,37.88
2022-11-10T21:33:47.450Z,35.88
2022-11-10T21:36:09.127Z,40.50
2022-11-10T21:38:30.204Z,35.47
2022-11-10T21:40:50.872Z,37.40
2022-11-10T21:43:11.806Z,36.65
2022-11-10T21:46:35.299Z,34.85
2022-11-10T21:48:55.758Z,36.80
2022-11-10T21:51:16.083Z,39.58
2022-11-10T21:53:37.154Z,39.60
2022-11-10T21:55:59.314Z,39.03
2022-11-10T21:58:19.857Z,37.63
2022-11-10T22:00:40.457Z,35.85
2022-11-10T22:03:05.967Z,36.38
2022-11-10T22:05:26.855Z,35.35
2022-11-10T22:07:47.386Z,37.05
2022-11-10T22:10:30.186Z,34.58
2022-11-10T22:13:09.336Z,33.50
2022-11-10T22:15:48.867Z,33.63
2022-11-10T22:18:36.480Z,35.22
2022-11-10T22:20:57.515Z,32.53
2022-11-10T22:23:18.204Z,33.92
2022-11-10T22:25:39.625Z,36.33
2022-11-10T22:28:02.769Z,42.40
2022-11-10T22:30:24.024Z,40.83
2022-11-10T22:32:47.283Z,40.40
2022-11-10T22:35:08.230Z,39.20
2022-11-10T22:37:33.268Z,37.70
2022-11-10T22:40:12.299Z,36.47
2022-11-10T22:42:51.640Z,37.60
2022-11-10T22:45:12.049Z,38.17
2022-11-10T22:47:52.589Z,35.22
2022-11-10T22:50:13.158Z,35.53
2022-11-10T22:52:34.145Z,35.20
2022-11-10T22:54:57.406Z,34.33
2022-11-10T22:57:18.064Z,36.45
2022-11-10T23:07:25.785Z,40.25
2022-11-10T23:09:46.034Z,43.38
2022-11-10T23:12:06.460Z,41.70
2022-11-10T23:14:27.111Z,40.58
2022-11-10T23:16:47.663Z,35.45
2022-11-10T23:19:11.157Z,34.90
2022-11-10T23:21:32.764Z,36.38
2022-11-10T23:23:54.010Z,34.75
2022-11-10T23:26:15.854Z,37.65
2022-11-10T23:28:36.899Z,41.30
2022-11-10T23:31:19.445Z,45.53
2022-11-10T23:33:42.115Z,47.53
2022-11-10T23:36:03.463Z,46.03
2022-11-10T23:38:29.227Z,43.88
2022-11-10T23:40:55.686Z,42.78
2022-11-10T23:43:16.597Z,38.83
2022-11-10T23:46:05.420Z,47.05
2022-11-10T23:48:19.247Z,54.13
2022-11-10T23:50:40.687Z,68.25
2022-11-10T23:53:04.388Z,58.95
2022-11-10T23:55:25.271Z,49.47
2022-11-10T23:57:46.941Z,44.95
